createdAt,value
2022-09-27T00:01:09.845Z,14.29
2022-09-27T00:03:37.978Z,14.17
2022-09-27T00:06:26.699Z,14.86
2022-09-27T00:08:54.695Z,15.35
2022-09-27T00:11:36.878Z,15.46
2022-09-27T00:14:05.370Z,15.59
2022-09-27T00:16:35.395Z,15.40
2022-09-27T00:19:06.467Z,15.24
2022-09-27T00:21:34.536Z,15.02
2022-09-27T00:24:02.391Z,14.90
2022-09-27T00:26:30.094Z,15.22
2022-09-27T00:28:58.253Z,15.20
2022-09-27T00:31:29.679Z,14.64
2022-09-27T00:34:02.167Z,14.07
2022-09-27T00:36:30.791Z,13.61
2022-09-27T00:39:02.590Z,13.83
2022-09-27T00:41:32.839Z,14.36
2022-09-27T00:44:26.998Z,14.81
2022-09-27T00:47:14.567Z,15.05
2022-09-27T00:49:48.979Z,14.50
2022-09-27T00:52:23.897Z,14.09
2022-09-27T00:54:55.777Z,13.88
2022-09-27T00:57:24.122Z,13.96
2022-09-27T00:59:58.432Z,14.47
2022-09-27T01:02:25.817Z,14.73
2022-09-27T01:04:55.705Z,14.82
2022-09-27T01:07:23.059Z,14.99
2022-09-27T01:09:50.852Z,14.99
2022-09-27T01:12:47.653Z,15.18
2022-09-27T01:15:33.821Z,15.31
2022-09-27T01:18:20.244Z,15.45
2022-09-27T01:21:06.726Z,15.45
2022-09-27T01:23:48.808Z,15.68
2022-09-27T01:26:29.849Z,15.61
2022-09-27T01:29:06.718Z,15.73
2022-09-27T01:31:34.469Z,15.70
2022-09-27T01:34:46.467Z,15.82
2022-09-27T01:37:20.615Z,15.98
2022-09-27T01:39:51.245Z,15.90
2022-09-27T01:42:50.300Z,15.38
2022-09-27T01:45:40.555Z,14.86
2022-09-27T01:48:12.301Z,14.57
2022-09-27T01:50:45.817Z,15.03
2022-09-27T01:53:30.586Z,14.93
2022-09-27T01:55:59.054Z,15.18
2022-09-27T01:58:42.151Z,14.94
2022-09-27T02:01:11.308Z,14.44
2022-09-27T02:03:42.963Z,14.07
2022-09-27T02:06:16.255Z,14.24
2022-09-27T02:08:48.500Z,13.90
2022-09-27T02:11:17.239Z,13.99
2022-09-27T02:13:50.739Z,13.75
2022-09-27T02:16:42.898Z,13.90
2022-09-27T02:19:24.870Z,14.25
2022-09-27T02:21:56.268Z,14.17
2022-09-27T02:24:30.816Z,13.89
2022-09-27T02:27:07.987Z,13.60
2022-09-27T02:29:41.472Z,13.42
2022-09-27T02:32:09.608Z,13.62
2022-09-27T02:34:40.105Z,13.03
2022-09-27T02:37:07.490Z,13.09
2022-09-27T02:39:35.236Z,13.16
2022-09-27T02:42:03.920Z,12.87
2022-09-27T02:44:31.458Z,12.65
2022-09-27T02:47:17.968Z,12.97
2022-09-27T02:49:59.970Z,13.12
2022-09-27T02:52:50.188Z,12.69
2022-09-27T02:55:36.947Z,12.03
2022-09-27T02:58:23.732Z,11.99
2022-09-27T03:01:11.685Z,11.97
2022-09-27T03:03:47.067Z,12.50
2022-09-27T03:06:15.792Z,12.70
2022-09-27T03:08:44.376Z,12.85
2022-09-27T03:11:11.783Z,13.25
2022-09-27T03:14:01.469Z,13.04
2022-09-27T03:16:27.962Z,12.94
2022-09-27T03:18:56.915Z,12.76
2022-09-27T03:21:29.334Z,12.60
2022-09-27T03:23:57.149Z,12.37
2022-09-27T03:26:25.625Z,12.24
2022-09-27T03:28:53.266Z,11.89
2022-09-27T03:31:21.174Z,11.66
2022-09-27T03:33:49.533Z,11.59
2022-09-27T03:36:17.058Z,11.41
2022-09-27T03:38:45.004Z,12.05
2022-09-27T03:41:12.767Z,12.74
2022-09-27T03:43:40.343Z,13.23
2022-09-27T03:46:08.686Z,13.34
2022-09-27T03:48:36.320Z,13.52
2022-09-27T03:51:04.705Z,13.65
2022-09-27T03:53:32.942Z,13.62
2022-09-27T03:56:00.487Z,13.54
2022-09-27T03:58:27.907Z,13.71
2022-09-27T04:00:55.710Z,13.62
2022-09-27T04:03:23.669Z,13.71
2022-09-27T04:05:56.514Z,13.68
2022-09-27T04:08:25.843Z,13.61
2022-09-27T04:10:53.255Z,13.87
2022-09-27T04:13:21.179Z,14.19
2022-09-27T04:15:52.240Z,14.29
2022-09-27T04:18:22.210Z,14.17
2022-09-27T04:20:50.224Z,14.00
2022-09-27T04:23:20.504Z,13.59
2022-09-27T04:25:48.762Z,13.62
2022-09-27T04:28:17.141Z,13.55
2022-09-27T04:30:46.015Z,14.28
2022-09-27T04:33:15.931Z,14.41
2022-09-27T04:36:03.871Z,14.30
2022-09-27T04:38:31.894Z,14.26
2022-09-27T04:41:02.045Z,14.31
2022-09-27T04:43:32.359Z,13.86
2022-09-27T04:46:00.203Z,13.86
2022-09-27T04:48:27.709Z,14.27
2022-09-27T04:51:04.906Z,14.36
2022-09-27T04:53:33.406Z,14.37
2022-09-27T04:56:06.082Z,14.58
2022-09-27T04:58:34.974Z,14.51
2022-09-27T05:01:04.419Z,14.57
2022-09-27T05:03:33.957Z,14.57
2022-09-27T05:06:01.813Z,14.34
2022-09-27T05:08:29.456Z,14.35
2022-09-27T05:10:58.778Z,14.15
2022-09-27T05:13:26.953Z,14.62
2022-09-27T05:15:54.538Z,14.62
2022-09-27T05:18:25.340Z,14.73
2022-09-27T05:20:56.980Z,14.80
2022-09-27T05:23:25.224Z,14.74
2022-09-27T05:25:55.346Z,14.86
2022-09-27T05:28:24.344Z,15.09
2022-09-27T05:30:52.078Z,14.93
2022-09-27T05:33:19.922Z,15.11
2022-09-27T05:35:54.735Z,14.97
2022-09-27T05:38:23.336Z,14.96
2022-09-27T05:40:51.752Z,15.11
2022-09-27T05:43:21.486Z,15.14
2022-09-27T05:45:49.552Z,15.20
2022-09-27T05:48:18.348Z,15.05
2022-09-27T05:50:46.509Z,14.91
2022-09-27T05:53:13.914Z,14.74
2022-09-27T05:55:43.176Z,14.52
2022-09-27T05:58:13.737Z,14.96
2022-09-27T06:00:44.341Z,15.23
2022-09-27T06:03:16.098Z,15.23
2022-09-27T06:05:51.230Z,14.89
2022-09-27T06:08:20.701Z,15.11
2022-09-27T06:10:49.762Z,15.34
2022-09-27T06:13:18.586Z,15.34
2022-09-27T06:15:47.427Z,15.17
2022-09-27T06:18:18.604Z,15.15
2022-09-27T06:20:47.008Z,15.41
2022-09-27T06:23:18.364Z,15.40
2022-09-27T06:25:47.786Z,15.53
2022-09-27T06:28:17.845Z,15.67
2022-09-27T06:30:47.692Z,15.89
2022-09-27T06:33:19.736Z,15.61
2022-09-27T06:35:49.612Z,15.71
2022-09-27T06:38:18.756Z,15.88
2022-09-27T06:40:47.365Z,15.67
2022-09-27T06:43:17.095Z,15.66
2022-09-27T06:45:45.378Z,15.87
2022-09-27T06:48:20.007Z,15.85
2022-09-27T06:50:49.239Z,15.82
2022-09-27T06:53:17.427Z,15.91
2022-09-27T06:55:45.446Z,16.21
2022-09-27T06:58:32.506Z,15.99
2022-09-27T07:01:02.381Z,15.98
2022-09-27T07:03:37.627Z,16.02
2022-09-27T07:06:20.717Z,16.17
2022-09-27T07:08:53.572Z,16.24
2022-09-27T07:11:23.713Z,15.96
2022-09-27T07:13:53.213Z,15.78
2022-09-27T07:16:20.775Z,16.16
2022-09-27T07:18:49.099Z,15.99
2022-09-27T07:21:17.194Z,16.39
2022-09-27T07:23:44.943Z,16.46
2022-09-27T07:26:13.174Z,16.14
2022-09-27T07:28:41.712Z,16.36
2022-09-27T07:31:09.967Z,16.84
2022-09-27T07:33:42.377Z,16.84
2022-09-27T07:36:12.297Z,17.08
2022-09-27T07:38:40.878Z,17.10
2022-09-27T07:41:10.284Z,17.29
2022-09-27T07:43:38.084Z,16.90
2022-09-27T07:46:06.246Z,17.01
2022-09-27T07:48:33.978Z,16.93
2022-09-27T07:51:02.074Z,17.08
2022-09-27T07:53:34.521Z,17.22
2022-09-27T07:56:03.626Z,17.37
2022-09-27T07:58:32.409Z,17.31
2022-09-27T08:01:01.252Z,17.29
2022-09-27T08:03:29.112Z,17.10
2022-09-27T08:05:56.970Z,16.80
2022-09-27T08:08:24.551Z,16.68
2022-09-27T08:10:53.794Z,16.57
2022-09-27T08:13:21.378Z,16.65
2022-09-27T08:15:49.036Z,17.11
2022-09-27T08:18:17.686Z,16.98
2022-09-27T08:20:46.936Z,16.95
2022-09-27T08:23:16.320Z,17.23
2022-09-27T08:25:44.376Z,17.35
2022-09-27T08:28:13.687Z,17.27
2022-09-27T08:30:41.654Z,17.02
2022-09-27T08:33:09.472Z,17.63
2022-09-27T08:35:37.258Z,17.43
2022-09-27T08:38:06.219Z,17.46
2022-09-27T08:40:38.379Z,17.37
2022-09-27T08:43:20.375Z,17.24
2022-09-27T08:46:15.901Z,16.95
2022-09-27T08:48:44.967Z,17.33
2022-09-27T08:51:13.957Z,17.18
2022-09-27T08:53:51.794Z,17.20
2022-09-27T08:56:22.820Z,17.04
2022-09-27T08:58:55.000Z,17.19
2022-09-27T09:01:28.510Z,17.29
2022-09-27T09:04:00.270Z,16.86
2022-09-27T09:06:30.127Z,16.84
2022-09-27T09:09:11.292Z,16.68
2022-09-27T09:12:05.310Z,17.16
2022-09-27T09:15:00.146Z,17.22
2022-09-27T09:17:51.116Z,16.84
2022-09-27T09:20:58.435Z,16.88
2022-09-27T09:23:47.852Z,16.97
2022-09-27T09:26:36.818Z,16.89
2022-09-27T09:29:19.562Z,17.17
2022-09-27T09:31:58.459Z,16.96
2022-09-27T09:34:49.503Z,16.84
2022-09-27T09:37:24.744Z,17.24
2022-09-27T09:40:08.240Z,17.35
2022-09-27T09:42:48.101Z,17.14
2022-09-27T09:45:19.895Z,17.34
2022-09-27T09:47:54.609Z,17.46
2022-09-27T09:50:27.475Z,17.44
2022-09-27T09:52:59.588Z,17.61
2022-09-27T09:55:31.082Z,17.38
2022-09-27T09:58:24.828Z,17.60
2022-09-27T10:00:55.678Z,17.74
2022-09-27T10:03:24.534Z,17.28
2022-09-27T10:05:52.693Z,17.49
2022-09-27T10:08:22.373Z,17.75
2022-09-27T10:10:51.503Z,17.90
2022-09-27T10:13:22.348Z,17.41
2022-09-27T10:15:55.501Z,17.78
2022-09-27T10:18:26.418Z,17.96
2022-09-27T10:21:00.310Z,17.44
2022-09-27T10:23:28.799Z,17.97
2022-09-27T10:26:01.501Z,18.35
2022-09-27T10:28:37.436Z,18.03
2022-09-27T10:31:09.663Z,17.58
2022-09-27T10:33:40.542Z,17.71
2022-09-27T10:36:32.745Z,18.48
2022-09-27T10:39:04.626Z,17.75
2022-09-27T10:41:36.657Z,17.77
2022-09-27T10:44:16.503Z,18.26
2022-09-27T10:46:47.778Z,18.23
2022-09-27T10:49:22.880Z,18.05
2022-09-27T10:51:54.760Z,18.53
2022-09-27T10:54:28.300Z,18.51
2022-09-27T10:57:23.158Z,18.14
2022-09-27T11:00:04.180Z,17.97
2022-09-27T11:02:40.126Z,18.25
2022-09-27T11:05:31.261Z,17.23
2022-09-27T11:08:03.176Z,17.85
2022-09-27T11:10:37.597Z,18.36
2022-09-27T11:13:13.123Z,18.99
2022-09-27T11:16:07.622Z,18.68
2022-09-27T11:18:56.910Z,19.01
2022-09-27T11:22:01.380Z,17.78
2022-09-27T11:25:13.793Z,18.01
2022-09-27T11:28:01.035Z,17.82
2022-09-27T11:30:53.185Z,17.74
2022-09-27T11:33:53.255Z,18.83
2022-09-27T11:36:35.288Z,18.61
2022-09-27T11:39:36.777Z,18.67
2022-09-27T11:42:24.007Z,18.44
2022-09-27T11:45:34.197Z,18.57
2022-09-27T11:48:12.996Z,18.27
2022-09-27T11:50:56.539Z,19.11
2022-09-27T11:53:35.411Z,19.41
2022-09-27T11:56:13.632Z,19.56
2022-09-27T11:59:05.863Z,19.56
2022-09-27T12:01:44.082Z,18.79
2022-09-27T12:04:42.828Z,19.15
2022-09-27T12:07:16.410Z,18.40
2022-09-27T12:09:48.510Z,18.79
2022-09-27T12:12:26.481Z,19.54
2022-09-27T12:15:07.196Z,19.14
2022-09-27T12:17:42.913Z,19.33
2022-09-27T12:20:24.551Z,18.60
2022-09-27T12:23:01.641Z,18.66
2022-09-27T12:25:36.346Z,18.27
2022-09-27T12:28:28.465Z,17.48
2022-09-27T12:31:28.090Z,16.90
2022-09-27T12:34:28.117Z,16.92
2022-09-27T12:37:05.105Z,17.01
2022-09-27T12:40:20.799Z,17.82
2022-09-27T12:43:07.045Z,18.19
2022-09-27T12:45:42.870Z,18.90
2022-09-27T12:48:35.607Z,19.13
2022-09-27T12:51:14.832Z,19.53
2022-09-27T12:53:49.788Z,18.58
2022-09-27T12:56:23.533Z,18.21
2022-09-27T12:59:17.687Z,18.52
2022-09-27T13:02:24.064Z,18.22
2022-09-27T13:05:22.557Z,18.14
2022-09-27T13:08:18.174Z,18.71
2022-09-27T13:10:58.407Z,18.77
2022-09-27T13:13:28.035Z,19.23
2022-09-27T13:16:00.696Z,19.59
2022-09-27T13:18:35.468Z,19.53
2022-09-27T13:21:07.905Z,19.25
2022-09-27T13:23:38.874Z,19.41
2022-09-27T13:26:10.006Z,19.40
2022-09-27T13:28:47.813Z,19.38
2022-09-27T13:31:17.223Z,19.32
2022-09-27T13:33:51.771Z,19.11
2022-09-27T13:36:26.409Z,17.97
2022-09-27T13:39:06.677Z,18.28
2022-09-27T13:41:59.437Z,18.54
2022-09-27T13:44:43.238Z,17.82
2022-09-27T13:47:30.545Z,17.68
2022-09-27T13:50:14.122Z,17.63
2022-09-27T13:52:45.402Z,17.55
2022-09-27T13:55:42.856Z,17.75
2022-09-27T13:58:30.559Z,16.16
2022-09-27T14:01:06.103Z,14.99
2022-09-27T14:03:42.896Z,15.39
2022-09-27T14:06:15.650Z,15.97
2022-09-27T14:08:46.877Z,15.37
2022-09-27T14:11:21.615Z,14.51
2022-09-27T14:13:50.357Z,14.82
2022-09-27T14:16:20.113Z,15.16
2022-09-27T14:19:00.673Z,14.55
2022-09-27T14:21:37.499Z,15.19
2022-09-27T14:24:23.778Z,15.59
2022-09-27T14:27:04.136Z,15.34
2022-09-27T14:29:38.235Z,15.68
2022-09-27T14:32:10.253Z,15.52
2022-09-27T14:34:39.463Z,15.68
2022-09-27T14:37:26.130Z,15.89
2022-09-27T14:39:57.113Z,16.06
2022-09-27T14:42:29.047Z,15.81
2022-09-27T14:45:01.227Z,15.54
2022-09-27T14:47:29.670Z,15.57
2022-09-27T14:50:19.046Z,15.32
2022-09-27T14:52:49.089Z,15.03
2022-09-27T14:55:19.046Z,15.27
2022-09-27T14:57:50.692Z,15.24
2022-09-27T15:00:24.836Z,15.27
2022-09-27T15:02:56.740Z,15.13
2022-09-27T15:05:27.023Z,14.96
2022-09-27T15:07:58.489Z,14.61
2022-09-27T15:10:29.804Z,14.51
2022-09-27T15:13:00.064Z,14.60
2022-09-27T15:15:33.417Z,14.91
2022-09-27T15:18:02.447Z,14.66
2022-09-27T15:20:35.437Z,14.46
2022-09-27T15:23:05.010Z,14.46
2022-09-27T15:25:39.497Z,14.28
2022-09-27T15:28:19.980Z,14.45
2022-09-27T15:30:54.433Z,14.29
2022-09-27T15:33:26.188Z,14.14
2022-09-27T15:35:55.600Z,14.12
2022-09-27T15:38:33.037Z,14.38
2022-09-27T15:41:04.589Z,14.40
2022-09-27T15:43:52.614Z,14.43
2022-09-27T15:46:23.022Z,14.05
2022-09-27T15:49:27.867Z,14.16
2022-09-27T15:51:56.847Z,14.36
2022-09-27T15:54:34.951Z,14.27
2022-09-27T15:57:04.951Z,14.59
2022-09-27T15:59:35.138Z,14.55
2022-09-27T16:02:08.374Z,14.86
2022-09-27T16:04:36.350Z,14.70
2022-09-27T16:07:05.151Z,14.98
2022-09-27T16:09:33.119Z,15.11
2022-09-27T16:12:00.914Z,15.09
2022-09-27T16:14:28.616Z,15.00
2022-09-27T16:16:59.247Z,14.78
2022-09-27T16:19:27.296Z,14.13
2022-09-27T16:21:54.715Z,14.35
2022-09-27T16:24:23.828Z,15.12
2022-09-27T16:26:51.489Z,15.19
2022-09-27T16:29:18.962Z,14.70
2022-09-27T16:31:47.361Z,14.89
2022-09-27T16:34:15.409Z,14.98
2022-09-27T16:36:43.223Z,14.52
2022-09-27T16:39:13.088Z,14.40
2022-09-27T16:41:41.395Z,14.35
2022-09-27T16:44:11.032Z,13.96
2022-09-27T16:46:43.088Z,14.04
2022-09-27T16:49:30.894Z,13.92
2022-09-27T16:52:01.882Z,13.96
2022-09-27T16:54:30.504Z,13.84
2022-09-27T16:56:59.328Z,13.60
2022-09-27T16:59:27.450Z,13.91
2022-09-27T17:01:58.117Z,14.28
2022-09-27T17:04:27.698Z,14.18
2022-09-27T17:06:56.365Z,14.28
2022-09-27T17:09:24.212Z,13.84
2022-09-27T17:11:51.812Z,13.50
2022-09-27T17:14:19.645Z,13.82
2022-09-27T17:16:47.733Z,13.95
2022-09-27T17:19:16.508Z,14.28
2022-09-27T17:21:45.644Z,13.64
2022-09-27T17:24:13.585Z,14.83
2022-09-27T17:26:41.145Z,15.31
2022-09-27T17:29:10.858Z,14.95
2022-09-27T17:31:40.241Z,14.64
2022-09-27T17:34:12.303Z,14.90
2022-09-27T17:36:42.363Z,14.74
2022-09-27T17:39:14.551Z,14.87
2022-09-27T17:41:42.491Z,14.63
2022-09-27T17:44:12.892Z,14.89
2022-09-27T17:46:41.676Z,14.53
2022-09-27T17:49:28.497Z,15.03
2022-09-27T17:51:56.005Z,14.40
2022-09-27T17:54:24.572Z,14.79
2022-09-27T17:56:51.899Z,14.83
2022-09-27T17:59:19.707Z,14.82
2022-09-27T18:01:48.172Z,14.52
2022-09-27T18:04:18.194Z,14.58
2022-09-27T18:06:47.074Z,14.55
2022-09-27T18:09:16.269Z,14.44
2022-09-27T18:11:44.884Z,14.34
2022-09-27T18:14:12.469Z,14.04
2022-09-27T18:16:44.151Z,14.51
2022-09-27T18:19:14.538Z,14.48
2022-09-27T18:21:42.867Z,14.05
2022-09-27T18:24:11.239Z,14.35
2022-09-27T18:26:40.358Z,14.49
2022-09-27T18:29:11.610Z,14.50
2022-09-27T18:31:48.021Z,14.15
2022-09-27T18:34:16.974Z,14.55
2022-09-27T18:36:45.320Z,14.73
2022-09-27T18:39:20.407Z,14.69
2022-09-27T18:41:50.519Z,14.80
2022-09-27T18:44:18.809Z,14.89
2022-09-27T18:46:46.976Z,14.78
2022-09-27T18:49:16.749Z,15.05
2022-09-27T18:51:47.113Z,14.83
2022-09-27T18:54:19.540Z,15.07
2022-09-27T18:56:48.935Z,13.52
2022-09-27T18:59:17.713Z,14.43
2022-09-27T19:01:46.379Z,14.14
2022-09-27T19:04:20.435Z,13.48
2022-09-27T19:06:51.968Z,14.52
2022-09-27T19:09:19.545Z,14.19
2022-09-27T19:11:47.473Z,14.01
2022-09-27T19:14:18.408Z,14.82
2022-09-27T19:16:48.404Z,14.70
2022-09-27T19:19:17.360Z,14.00
2022-09-27T19:21:46.440Z,14.18
2022-09-27T19:24:15.319Z,14.22
2022-09-27T19:26:43.601Z,14.01
2022-09-27T19:29:13.337Z,15.27
2022-09-27T19:31:42.564Z,13.51
2022-09-27T19:34:11.207Z,14.15
2022-09-27T19:36:39.081Z,14.99
2022-09-27T19:39:07.107Z,15.60
2022-09-27T19:41:34.814Z,15.84
2022-09-27T19:44:02.699Z,15.94
2022-09-27T19:46:30.446Z,15.86
2022-09-27T19:48:58.789Z,15.58
2022-09-27T19:51:28.091Z,15.57
2022-09-27T19:53:55.885Z,15.61
2022-09-27T19:56:24.449Z,15.30
2022-09-27T19:58:52.269Z,15.20
2022-09-27T20:01:22.919Z,15.00
2022-09-27T20:03:52.548Z,14.86
2022-09-27T20:06:21.050Z,15.42
2022-09-27T20:08:49.413Z,15.67
2022-09-27T20:11:19.777Z,15.43
2022-09-27T20:13:48.096Z,15.52
2022-09-27T20:16:18.133Z,15.66
2022-09-27T20:18:50.882Z,15.32
2022-09-27T20:21:20.659Z,15.24
2022-09-27T20:23:50.193Z,14.88
2022-09-27T20:26:18.984Z,14.78
2022-09-27T20:28:48.294Z,14.78
2022-09-27T20:31:23.166Z,14.96
2022-09-27T20:33:52.364Z,14.71
2022-09-27T20:36:21.335Z,14.94
2022-09-27T20:38:50.327Z,15.05
2022-09-27T20:41:20.357Z,14.46
2022-09-27T20:43:50.874Z,14.31
2022-09-27T20:46:20.046Z,14.94
2022-09-27T20:48:55.253Z,14.34
2022-09-27T20:51:23.256Z,14.63
2022-09-27T20:53:51.524Z,15.05
2022-09-27T20:56:31.564Z,14.72
2022-09-27T20:59:02.117Z,15.03
2022-09-27T21:01:30.323Z,14.77
2022-09-27T21:04:00.206Z,15.16
2022-09-27T21:06:30.403Z,15.04
2022-09-27T21:08:59.102Z,14.23
2022-09-27T21:11:27.086Z,12.91
2022-09-27T21:13:54.889Z,13.15
2022-09-27T21:16:25.215Z,13.50
2022-09-27T21:18:54.357Z,14.08
2022-09-27T21:21:23.480Z,13.66
2022-09-27T21:23:59.181Z,12.65
2022-09-27T21:26:29.765Z,13.30
2022-09-27T21:28:59.012Z,13.38
2022-09-27T21:31:29.987Z,13.20
2022-09-27T21:33:59.464Z,12.74
2022-09-27T21:36:33.008Z,13.15
2022-09-27T21:39:01.184Z,12.32
2022-09-27T21:41:28.797Z,12.37
2022-09-27T21:43:57.358Z,12.74
2022-09-27T21:46:28.939Z,12.24
2022-09-27T21:48:59.000Z,12.81
2022-09-27T21:51:28.422Z,12.76
2022-09-27T21:53:58.960Z,13.14
2022-09-27T21:56:29.745Z,13.30
2022-09-27T21:58:57.427Z,13.57
2022-09-27T22:01:27.490Z,12.33
2022-09-27T22:03:55.710Z,12.64
2022-09-27T22:06:24.499Z,13.40
2022-09-27T22:08:53.301Z,11.75
2022-09-27T22:11:43.964Z,12.24
2022-09-27T22:14:11.985Z,11.89
2022-09-27T22:16:39.739Z,12.89
2022-09-27T22:19:07.729Z,12.63
2022-09-27T22:21:37.205Z,13.20
2022-09-27T22:24:08.179Z,13.03
2022-09-27T22:26:38.326Z,13.24
2022-09-27T22:29:07.098Z,12.77
2022-09-27T22:31:35.168Z,12.12
2022-09-27T22:34:05.244Z,12.95
2022-09-27T22:36:34.247Z,13.28
2022-09-27T22:39:01.957Z,13.31
2022-09-27T22:41:30.707Z,13.04
2022-09-27T22:43:58.418Z,13.13
2022-09-27T22:46:26.294Z,13.20
2022-09-27T22:48:55.992Z,13.36
2022-09-27T22:51:23.634Z,13.28
2022-09-27T22:53:51.071Z,13.21
2022-09-27T22:56:20.314Z,13.07
2022-09-27T22:58:48.790Z,13.13
2022-09-27T23:01:18.389Z,12.22
2022-09-27T23:03:47.148Z,12.92
2022-09-27T23:06:16.303Z,12.54
2022-09-27T23:08:44.462Z,11.64
2022-09-27T23:11:18.800Z,12.05
2022-09-27T23:13:48.074Z,11.97
2022-09-27T23:16:18.059Z,11.59
2022-09-27T23:18:47.634Z,11.59
2022-09-27T23:21:16.058Z,12.31
2022-09-27T23:23:45.266Z,11.89
2022-09-27T23:26:14.647Z,12.39
2022-09-27T23:28:42.309Z,13.27
2022-09-27T23:31:11.561Z,13.29
2022-09-27T23:33:41.879Z,13.55
2022-09-27T23:36:12.230Z,13.70
2022-09-27T23:38:41.077Z,13.46
2022-09-27T23:41:08.573Z,13.52
2022-09-27T23:43:36.506Z,13.23
2022-09-27T23:46:05.356Z,13.57
2022-09-27T23:48:36.918Z,13.56
2022-09-27T23:51:06.834Z,13.15
2022-09-27T23:53:35.289Z,13.77
2022-09-27T23:56:07.326Z,13.02
2022-09-27T23:58:40.311Z,13.16
